Metar z połowy godziny Komunikat METAR ze strony awiacja.imgw.pl Metar G30 EPLK METAR EPLK 240500Z 14007KT 3000 BR BKN110 M02/M03 Q1023 RMK M021 095 7/7=